sensor_id;sensor_type;location;lat;lon;timestamp;pressure;altitude;pressure_sealevel;temperature;humidity
49529;BME280;35423;37.320;-121.762;2022-09-09T00:01:25;98781.56;;;59.85;0.00
49529;BME280;35423;37.320;-121.762;2022-09-09T00:03:48;98781.49;;;59.57;0.00
49529;BME280;35423;37.320;-121.762;2022-09-09T00:06:12;98780.52;;;59.43;0.00
49529;BME280;35423;37.320;-121.762;2022-09-09T00:08:38;98777.88;;;59.37;0.00
49529;BME280;35423;37.320;-121.762;2022-09-09T00:11:04;98775.83;;;59.25;0.00
49529;BME280;35423;37.320;-121.762;2022-09-09T00:13:32;98773.03;;;59.01;0.00
49529;BME280;35423;37.320;-121.762;2022-09-09T00:15:57;98772.50;;;58.49;0.00
49529;BME280;35423;37.320;-121.762;2022-09-09T00:18:25;98766.79;;;58.73;0.04
49529;BME280;35423;37.320;-121.762;2022-09-09T00:20:53;98765.50;;;58.04;0.06
49529;BME280;35423;37.320;-121.762;2022-09-09T00:23:20;98760.15;;;58.49;0.06
49529;BME280;35423;37.320;-121.762;2022-09-09T00:25:49;98757.09;;;58.03;0.29
49529;BME280;35423;37.320;-121.762;2022-09-09T00:28:16;98753.76;;;58.19;0.27
49529;BME280;35423;37.320;-121.762;2022-09-09T00:30:35;98749.17;;;58.08;0.33
49529;BME280;35423;37.320;-121.762;2022-09-09T00:33:08;98742.94;;;58.14;0.41
49529;BME280;35423;37.320;-121.762;2022-09-09T00:35:31;98743.86;;;57.75;0.51
49529;BME280;35423;37.320;-121.762;2022-09-09T00:38:00;98739.55;;;57.17;0.63
49529;BME280;35423;37.320;-121.762;2022-09-09T00:40:29;98736.46;;;57.13;0.65
49529;BME280;35423;37.320;-121.762;2022-09-09T00:42:58;98740.36;;;57.04;0.72
49529;BME280;35423;37.320;-121.762;2022-09-09T00:45:30;98739.44;;;56.68;0.74
49529;BME280;35423;37.320;-121.762;2022-09-09T00:47:46;98739.78;;;56.49;0.67
49529;BME280;35423;37.320;-121.762;2022-09-09T00:52:43;98737.93;;;56.21;0.99
49529;BME280;35423;37.320;-121.762;2022-09-09T00:55:09;98736.48;;;55.78;1.12
49529;BME280;35423;37.320;-121.762;2022-09-09T00:57:33;98736.00;;;55.56;1.34
49529;BME280;35423;37.320;-121.762;2022-09-09T01:00:02;98736.21;;;54.73;1.48
49529;BME280;35423;37.320;-121.762;2022-09-09T01:02:28;98734.99;;;54.43;1.63
49529;BME280;35423;37.320;-121.762;2022-09-09T01:04:49;98736.50;;;53.77;1.75
49529;BME280;35423;37.320;-121.762;2022-09-09T01:07:18;98740.66;;;53.82;1.91
49529;BME280;35423;37.320;-121.762;2022-09-09T01:12:16;98740.63;;;53.03;2.37
49529;BME280;35423;37.320;-121.762;2022-09-09T01:14:47;98739.97;;;52.67;2.64
49529;BME280;35423;37.320;-121.762;2022-09-09T01:17:17;98736.68;;;52.53;2.93
49529;BME280;35423;37.320;-121.762;2022-09-09T01:19:52;98738.68;;;52.39;3.15
49529;BME280;35423;37.320;-121.762;2022-09-09T01:22:06;98737.53;;;51.84;3.38
49529;BME280;35423;37.320;-121.762;2022-09-09T01:24:34;98739.20;;;52.26;3.48
49529;BME280;35423;37.320;-121.762;2022-09-09T01:26:57;98738.83;;;51.46;3.51
49529;BME280;35423;37.320;-121.762;2022-09-09T01:29:22;98742.08;;;51.64;3.54
49529;BME280;35423;37.320;-121.762;2022-09-09T01:31:55;98740.63;;;51.48;3.37
49529;BME280;35423;37.320;-121.762;2022-09-09T01:34:29;98745.74;;;51.11;3.43
49529;BME280;35423;37.320;-121.762;2022-09-09T01:36:55;98749.17;;;50.37;3.54
49529;BME280;35423;37.320;-121.762;2022-09-09T01:39:16;98746.82;;;50.72;3.57
49529;BME280;35423;37.320;-121.762;2022-09-09T01:41:44;98747.18;;;50.36;3.59
49529;BME280;35423;37.320;-121.762;2022-09-09T01:44:10;98747.80;;;50.42;3.53
49529;BME280;35423;37.320;-121.762;2022-09-09T01:46:36;98751.24;;;50.44;3.62
49529;BME280;35423;37.320;-121.762;2022-09-09T01:49:06;98751.08;;;50.30;3.58
49529;BME280;35423;37.320;-121.762;2022-09-09T01:51:32;98752.85;;;50.22;3.47
49529;BME280;35423;37.320;-121.762;2022-09-09T01:53:57;98755.32;;;49.80;3.48
49529;BME280;35423;37.320;-121.762;2022-09-09T01:56:35;98756.93;;;50.12;3.47
49529;BME280;35423;37.320;-121.762;2022-09-09T01:59:03;98761.06;;;49.43;3.36
49529;BME280;35423;37.320;-121.762;2022-09-09T02:01:27;98763.99;;;49.89;3.41
49529;BME280;35423;37.320;-121.762;2022-09-09T02:03:49;98765.95;;;49.18;3.18
49529;BME280;35423;37.320;-121.762;2022-09-09T02:06:17;98763.43;;;49.52;3.12
49529;BME280;35423;37.320;-121.762;2022-09-09T02:08:41;98760.57;;;48.90;3.18
49529;BME280;35423;37.320;-121.762;2022-09-09T02:11:09;98759.45;;;48.75;3.19
49529;BME280;35423;37.320;-121.762;2022-09-09T02:13:30;98755.41;;;48.81;3.24
49529;BME280;35423;37.320;-121.762;2022-09-09T02:16:14;98751.79;;;48.59;3.24
49529;BME280;35423;37.320;-121.762;2022-09-09T02:18:44;98749.53;;;48.63;3.15
49529;BME280;35423;37.320;-121.762;2022-09-09T02:21:04;98745.88;;;48.05;3.16
49529;BME280;35423;37.320;-121.762;2022-09-09T02:23:29;98746.31;;;47.71;3.36
49529;BME280;35423;37.320;-121.762;2022-09-09T02:25:56;98746.74;;;47.64;3.31
49529;BME280;35423;37.320;-121.762;2022-09-09T02:28:25;98746.15;;;47.36;3.39
49529;BME280;35423;37.320;-121.762;2022-09-09T02:30:50;98750.57;;;46.68;3.46
49529;BME280;35423;37.320;-121.762;2022-09-09T02:33:16;98749.58;;;47.14;3.54
49529;BME280;35423;37.320;-121.762;2022-09-09T02:35:44;98750.47;;;47.43;3.64
49529;BME280;35423;37.320;-121.762;2022-09-09T02:38:13;98749.40;;;46.85;3.71
49529;BME280;35423;37.320;-121.762;2022-09-09T02:40:36;98747.15;;;46.84;3.82
49529;BME280;35423;37.320;-121.762;2022-09-09T02:43:01;98745.89;;;46.27;3.93
49529;BME280;35423;37.320;-121.762;2022-09-09T02:45:34;98746.06;;;46.81;3.91
49529;BME280;35423;37.320;-121.762;2022-09-09T02:48:03;98750.06;;;45.86;3.99
49529;BME280;35423;37.320;-121.762;2022-09-09T02:50:27;98753.48;;;46.40;4.08
49529;BME280;35423;37.320;-121.762;2022-09-09T02:53:07;98756.39;;;45.41;4.08
49529;BME280;35423;37.320;-121.762;2022-09-09T02:55:27;98761.36;;;46.30;4.07
49529;BME280;35423;37.320;-121.762;2022-09-09T02:57:49;98759.81;;;45.66;4.10
49529;BME280;35423;37.320;-121.762;2022-09-09T03:02:48;98761.56;;;45.43;4.19
49529;BME280;35423;37.320;-121.762;2022-09-09T03:05:14;98765.87;;;45.87;4.28
49529;BME280;35423;37.320;-121.762;2022-09-09T03:07:41;98765.89;;;45.52;4.41
49529;BME280;35423;37.320;-121.762;2022-09-09T03:10:07;98771.23;;;45.37;4.57
49529;BME280;35423;37.320;-121.762;2022-09-09T03:12:31;98773.13;;;45.34;4.81
49529;BME280;35423;37.320;-121.762;2022-09-09T03:15:00;98773.45;;;45.02;4.98
49529;BME280;35423;37.320;-121.762;2022-09-09T03:17:28;98777.11;;;44.84;5.15
49529;BME280;35423;37.320;-121.762;2022-09-09T03:19:55;98777.27;;;45.23;5.28
49529;BME280;35423;37.320;-121.762;2022-09-09T03:22:21;98778.04;;;44.97;5.48
49529;BME280;35423;37.320;-121.762;2022-09-09T03:24:47;98784.20;;;44.27;5.68
49529;BME280;35423;37.320;-121.762;2022-09-09T03:27:12;98788.05;;;44.57;5.85
49529;BME280;35423;37.320;-121.762;2022-09-09T03:29:41;98791.29;;;44.48;5.95
49529;BME280;35423;37.320;-121.762;2022-09-09T03:32:09;98794.20;;;44.34;6.09
49529;BME280;35423;37.320;-121.762;2022-09-09T03:34:35;98800.68;;;44.19;6.23
49529;BME280;35423;37.320;-121.762;2022-09-09T03:37:02;98802.32;;;44.05;6.38
49529;BME280;35423;37.320;-121.762;2022-09-09T03:39:29;98809.08;;;43.90;6.43
49529;BME280;35423;37.320;-121.762;2022-09-09T03:41:55;98815.13;;;43.69;6.60
49529;BME280;35423;37.320;-121.762;2022-09-09T03:44:22;98818.23;;;43.75;6.74
49529;BME280;35423;37.320;-121.762;2022-09-09T03:46:51;98819.23;;;43.08;6.92
49529;BME280;35423;37.320;-121.762;2022-09-09T03:49:19;98820.46;;;43.61;7.21
49529;BME280;35423;37.320;-121.762;2022-09-09T03:51:46;98818.81;;;42.63;7.34
49529;BME280;35423;37.320;-121.762;2022-09-09T03:54:10;98818.08;;;43.49;7.33
49529;BME280;35423;37.320;-121.762;2022-09-09T03:56:37;98819.63;;;43.38;7.28
49529;BME280;35423;37.320;-121.762;2022-09-09T03:59:09;98817.84;;;43.17;7.32
49529;BME280;35423;37.320;-121.762;2022-09-09T04:01:35;98822.23;;;43.39;7.24
49529;BME280;35423;37.320;-121.762;2022-09-09T04:04:01;98821.13;;;42.93;7.34
49529;BME280;35423;37.320;-121.762;2022-09-09T04:06:31;98820.11;;;42.97;7.48
49529;BME280;35423;37.320;-121.762;2022-09-09T04:08:58;98818.91;;;42.55;7.65
49529;BME280;35423;37.320;-121.762;2022-09-09T04:11:23;98820.57;;;42.76;7.68
49529;BME280;35423;37.320;-121.762;2022-09-09T04:13:54;98823.38;;;42.13;7.65
49529;BME280;35423;37.320;-121.762;2022-09-09T04:16:21;98823.70;;;42.28;7.63
49529;BME280;35423;37.320;-121.762;2022-09-09T04:18:50;98822.01;;;42.18;7.55
49529;BME280;35423;37.320;-121.762;2022-09-09T04:21:15;98820.47;;;42.47;7.52
49529;BME280;35423;37.320;-121.762;2022-09-09T04:23:44;98823.71;;;42.08;7.28
49529;BME280;35423;37.320;-121.762;2022-09-09T04:26:19;98823.23;;;42.40;7.25
49529;BME280;35423;37.320;-121.762;2022-09-09T04:28:45;98827.93;;;42.21;7.33
49529;BME280;35423;37.320;-121.762;2022-09-09T04:31:20;98828.76;;;42.03;7.58
49529;BME280;35423;37.320;-121.762;2022-09-09T04:36:12;98828.67;;;41.54;7.94
49529;BME280;35423;37.320;-121.762;2022-09-09T04:38:38;98824.55;;;41.34;7.98
49529;BME280;35423;37.320;-121.762;2022-09-09T04:41:08;98826.96;;;41.37;8.19
49529;BME280;35423;37.320;-121.762;2022-09-09T04:43:34;98828.60;;;41.38;8.19
49529;BME280;35423;37.320;-121.762;2022-09-09T04:46:00;98831.89;;;41.30;8.34
49529;BME280;35423;37.320;-121.762;2022-09-09T04:48:26;98834.19;;;41.05;8.51
49529;BME280;35423;37.320;-121.762;2022-09-09T04:50:56;98833.07;;;40.79;8.52
49529;BME280;35423;37.320;-121.762;2022-09-09T04:53:22;98830.54;;;41.12;8.54
49529;BME280;35423;37.320;-121.762;2022-09-09T04:55:48;98830.37;;;40.74;8.53
49529;BME280;35423;37.320;-121.762;2022-09-09T04:58:13;98829.77;;;40.75;8.56
49529;BME280;35423;37.320;-121.762;2022-09-09T05:00:43;98826.01;;;40.64;8.52
49529;BME280;35423;37.320;-121.762;2022-09-09T05:03:10;98824.27;;;40.55;8.63
49529;BME280;35423;37.320;-121.762;2022-09-09T05:05:39;98819.38;;;40.72;8.71
49529;BME280;35423;37.320;-121.762;2022-09-09T05:08:08;98818.42;;;40.14;8.96
49529;BME280;35423;37.320;-121.762;2022-09-09T05:10:37;98817.83;;;40.47;8.97
49529;BME280;35423;37.320;-121.762;2022-09-09T05:13:01;98815.99;;;40.43;9.12
49529;BME280;35423;37.320;-121.762;2022-09-09T05:15:30;98817.19;;;40.61;8.80
49529;BME280;35423;37.320;-121.762;2022-09-09T05:17:57;98814.75;;;40.35;8.78
49529;BME280;35423;37.320;-121.762;2022-09-09T05:20:24;98815.86;;;40.25;8.64
49529;BME280;35423;37.320;-121.762;2022-09-09T05:22:53;98814.73;;;39.19;8.80
49529;BME280;35423;37.320;-121.762;2022-09-09T05:25:15;98815.71;;;39.90;8.88
49529;BME280;35423;37.320;-121.762;2022-09-09T05:27:53;98814.63;;;39.77;8.98
49529;BME280;35423;37.320;-121.762;2022-09-09T05:30:20;98818.13;;;40.02;9.04
49529;BME280;35423;37.320;-121.762;2022-09-09T05:32:49;98819.09;;;39.23;9.01
49529;BME280;35423;37.320;-121.762;2022-09-09T05:35:18;98821.91;;;39.51;9.17
49529;BME280;35423;37.320;-121.762;2022-09-09T05:37:44;98824.07;;;39.49;9.30
49529;BME280;35423;37.320;-121.762;2022-09-09T05:40:10;98823.17;;;39.47;9.48
49529;BME280;35423;37.320;-121.762;2022-09-09T05:42:37;98822.78;;;39.69;9.56
49529;BME280;35423;37.320;-121.762;2022-09-09T05:45:06;98820.25;;;39.25;9.71
49529;BME280;35423;37.320;-121.762;2022-09-09T05:47:37;98816.50;;;39.42;9.92
49529;BME280;35423;37.320;-121.762;2022-09-09T05:50:11;98817.31;;;39.17;10.07
49529;BME280;35423;37.320;-121.762;2022-09-09T05:52:39;98817.61;;;39.17;10.14
49529;BME280;35423;37.320;-121.762;2022-09-09T05:55:07;98816.06;;;38.89;9.94
49529;BME280;35423;37.320;-121.762;2022-09-09T05:57:33;98813.67;;;38.82;10.01
49529;BME280;35423;37.320;-121.762;2022-09-09T05:59:59;98811.28;;;38.84;10.08
49529;BME280;35423;37.320;-121.762;2022-09-09T06:02:25;98807.93;;;38.40;10.25
49529;BME280;35423;37.320;-121.762;2022-09-09T06:04:52;98806.03;;;38.49;10.45
49529;BME280;35423;37.320;-121.762;2022-09-09T06:07:20;98802.46;;;38.51;10.67
49529;BME280;35423;37.320;-121.762;2022-09-09T06:09:45;98800.23;;;37.86;10.89
49529;BME280;35423;37.320;-121.762;2022-09-09T06:12:13;98795.87;;;38.32;10.93
49529;BME280;35423;37.320;-121.762;2022-09-09T06:14:39;98792.31;;;38.56;11.07
49529;BME280;35423;37.320;-121.762;2022-09-09T06:17:05;98795.89;;;38.17;11.23
49529;BME280;35423;37.320;-121.762;2022-09-09T06:19:37;98796.95;;;38.53;11.41
49529;BME280;35423;37.320;-121.762;2022-09-09T06:22:02;98800.40;;;38.18;11.48
49529;BME280;35423;37.320;-121.762;2022-09-09T06:24:28;98801.54;;;38.07;11.30
49529;BME280;35423;37.320;-121.762;2022-09-09T06:26:52;98798.13;;;37.49;11.43
49529;BME280;35423;37.320;-121.762;2022-09-09T06:29:20;98791.07;;;37.73;11.61
49529;BME280;35423;37.320;-121.762;2022-09-09T06:31:47;98791.08;;;36.94;11.77
49529;BME280;35423;37.320;-121.762;2022-09-09T06:34:14;98791.56;;;37.83;12.00
49529;BME280;35423;37.320;-121.762;2022-09-09T06:36:44;98788.50;;;37.90;12.19
49529;BME280;35423;37.320;-121.762;2022-09-09T06:39:10;98787.23;;;37.55;12.45
49529;BME280;35423;37.320;-121.762;2022-09-09T06:41:37;98782.05;;;37.36;12.91
49529;BME280;35423;37.320;-121.762;2022-09-09T06:44:02;98782.73;;;37.50;13.32
49529;BME280;35423;37.320;-121.762;2022-09-09T06:46:31;98782.93;;;37.51;13.79
49529;BME280;35423;37.320;-121.762;2022-09-09T06:49:07;98788.69;;;37.26;14.28
49529;BME280;35423;37.320;-121.762;2022-09-09T06:51:36;98793.06;;;37.27;14.46
49529;BME280;35423;37.320;-121.762;2022-09-09T06:54:06;98796.78;;;36.97;14.45
49529;BME280;35423;37.320;-121.762;2022-09-09T06:56:34;98799.49;;;36.68;14.46
49529;BME280;35423;37.320;-121.762;2022-09-09T06:59:02;98799.74;;;36.34;14.52
49529;BME280;35423;37.320;-121.762;2022-09-09T07:01:28;98797.51;;;36.50;14.58
49529;BME280;35423;37.320;-121.762;2022-09-09T07:03:55;98795.67;;;36.36;14.77
49529;BME280;35423;37.320;-121.762;2022-09-09T07:06:23;98793.64;;;36.65;14.96
49529;BME280;35423;37.320;-121.762;2022-09-09T07:08:50;98791.81;;;35.73;15.28
49529;BME280;35423;37.320;-121.762;2022-09-09T07:11:14;98788.35;;;36.29;15.64
49529;BME280;35423;37.320;-121.762;2022-09-09T07:13:40;98783.34;;;36.29;15.81
49529;BME280;35423;37.320;-121.762;2022-09-09T07:16:09;98778.52;;;36.22;16.10
49529;BME280;35423;37.320;-121.762;2022-09-09T07:18:33;98777.10;;;36.27;16.14
49529;BME280;35423;37.320;-121.762;2022-09-09T07:20:59;98777.98;;;35.94;16.00
49529;BME280;35423;37.320;-121.762;2022-09-09T07:23:26;98779.06;;;35.85;15.86
49529;BME280;35423;37.320;-121.762;2022-09-09T07:25:54;98782.52;;;35.62;16.26
49529;BME280;35423;37.320;-121.762;2022-09-09T07:28:22;98784.55;;;36.21;16.01
49529;BME280;35423;37.320;-121.762;2022-09-09T07:30:54;98787.63;;;35.46;16.01
49529;BME280;35423;37.320;-121.762;2022-09-09T07:33:15;98784.75;;;35.65;15.91
49529;BME280;35423;37.320;-121.762;2022-09-09T07:35:45;98781.63;;;35.36;15.53
49529;BME280;35423;37.320;-121.762;2022-09-09T07:38:12;98780.30;;;35.68;15.35
49529;BME280;35423;37.320;-121.762;2022-09-09T07:40:37;98777.70;;;35.53;15.32
49529;BME280;35423;37.320;-121.762;2022-09-09T07:43:04;98775.84;;;35.35;15.37
49529;BME280;35423;37.320;-121.762;2022-09-09T07:45:33;98770.69;;;35.17;15.44
49529;BME280;35423;37.320;-121.762;2022-09-09T07:47:56;98765.32;;;35.09;15.56
49529;BME280;35423;37.320;-121.762;2022-09-09T07:50:22;98759.82;;;35.39;15.64
49529;BME280;35423;37.320;-121.762;2022-09-09T07:52:47;98757.97;;;34.64;15.76
49529;BME280;35423;37.320;-121.762;2022-09-09T07:55:13;98755.21;;;35.36;15.88
49529;BME280;35423;37.320;-121.762;2022-09-09T07:57:39;98753.03;;;35.45;16.05
49529;BME280;35423;37.320;-121.762;2022-09-09T08:00:04;98754.95;;;35.25;16.32
49529;BME280;35423;37.320;-121.762;2022-09-09T08:02:32;98750.52;;;35.19;16.32
49529;BME280;35423;37.320;-121.762;2022-09-09T08:04:58;98748.38;;;34.48;15.98
49529;BME280;35423;37.320;-121.762;2022-09-09T08:07:26;98747.47;;;35.07;15.87
49529;BME280;35423;37.320;-121.762;2022-09-09T08:09:53;98746.91;;;34.26;16.25
49529;BME280;35423;37.320;-121.762;2022-09-09T08:12:19;98744.22;;;34.91;16.32
49529;BME280;35423;37.320;-121.762;2022-09-09T08:14:45;98739.09;;;34.75;16.45
49529;BME280;35423;37.320;-121.762;2022-09-09T08:17:12;98737.85;;;34.53;16.70
49529;BME280;35423;37.320;-121.762;2022-09-09T08:19:39;98738.89;;;34.50;16.92
49529;BME280;35423;37.320;-121.762;2022-09-09T08:22:08;98740.04;;;34.46;17.07
49529;BME280;35423;37.320;-121.762;2022-09-09T08:24:35;98740.91;;;34.37;17.43
49529;BME280;35423;37.320;-121.762;2022-09-09T08:27:01;98742.10;;;34.09;18.16
49529;BME280;35423;37.320;-121.762;2022-09-09T08:29:26;98734.99;;;34.46;18.44
49529;BME280;35423;37.320;-121.762;2022-09-09T08:31:57;98734.06;;;33.84;18.56
49529;BME280;35423;37.320;-121.762;2022-09-09T08:34:20;98732.03;;;34.30;18.11
49529;BME280;35423;37.320;-121.762;2022-09-09T08:36:47;98728.96;;;33.50;18.61
49529;BME280;35423;37.320;-121.762;2022-09-09T08:39:12;98729.97;;;33.68;19.16
49529;BME280;35423;37.320;-121.762;2022-09-09T08:44:07;98721.57;;;33.82;19.34
49529;BME280;35423;37.320;-121.762;2022-09-09T08:46:42;98714.88;;;33.78;19.36
49529;BME280;35423;37.320;-121.762;2022-09-09T08:49:03;98709.03;;;33.43;19.50
49529;BME280;35423;37.320;-121.762;2022-09-09T08:51:31;98703.95;;;33.57;19.70
49529;BME280;35423;37.320;-121.762;2022-09-09T08:53:55;98698.25;;;33.17;19.63
49529;BME280;35423;37.320;-121.762;2022-09-09T08:56:23;98694.05;;;33.38;19.65
49529;BME280;35423;37.320;-121.762;2022-09-09T08:58:47;98690.94;;;33.08;19.83
49529;BME280;35423;37.320;-121.762;2022-09-09T09:01:24;98687.54;;;33.21;20.01
49529;BME280;35423;37.320;-121.762;2022-09-09T09:03:43;98687.89;;;33.30;20.40
49529;BME280;35423;37.320;-121.762;2022-09-09T09:06:12;98686.25;;;32.97;20.82
49529;BME280;35423;37.320;-121.762;2022-09-09T09:08:46;98685.04;;;33.18;21.08
49529;BME280;35423;37.320;-121.762;2022-09-09T09:11:06;98682.80;;;33.13;20.93
49529;BME280;35423;37.320;-121.762;2022-09-09T09:13:38;98679.74;;;33.12;20.68
49529;BME280;35423;37.320;-121.762;2022-09-09T09:16:03;98678.42;;;33.15;20.58
49529;BME280;35423;37.320;-121.762;2022-09-09T09:18:23;98682.59;;;33.18;20.64
49529;BME280;35423;37.320;-121.762;2022-09-09T09:20:53;98681.57;;;33.28;20.92
49529;BME280;35423;37.320;-121.762;2022-09-09T09:23:22;98684.06;;;32.69;21.36
49529;BME280;35423;37.320;-121.762;2022-09-09T09:25:45;98682.15;;;32.95;20.79
49529;BME280;35423;37.320;-121.762;2022-09-09T09:28:17;98678.33;;;32.66;20.30
49529;BME280;35423;37.320;-121.762;2022-09-09T09:30:46;98674.48;;;32.68;20.18
49529;BME280;35423;37.320;-121.762;2022-09-09T09:33:15;98669.53;;;32.52;20.28
49529;BME280;35423;37.320;-121.762;2022-09-09T09:35:36;98664.52;;;32.58;20.43
49529;BME280;35423;37.320;-121.762;2022-09-09T09:38:10;98658.60;;;32.26;20.78
49529;BME280;35423;37.320;-121.762;2022-09-09T09:40:30;98652.97;;;32.23;20.94
49529;BME280;35423;37.320;-121.762;2022-09-09T09:42:58;98649.70;;;32.37;20.78
49529;BME280;35423;37.320;-121.762;2022-09-09T09:45:31;98651.76;;;32.24;20.89
49529;BME280;35423;37.320;-121.762;2022-09-09T09:47:59;98651.72;;;31.87;21.11
49529;BME280;35423;37.320;-121.762;2022-09-09T09:50:19;98652.21;;;32.04;21.47
49529;BME280;35423;37.320;-121.762;2022-09-09T09:52:53;98649.55;;;31.52;21.93
49529;BME280;35423;37.320;-121.762;2022-09-09T09:55:14;98646.73;;;32.16;22.46
49529;BME280;35423;37.320;-121.762;2022-09-09T09:57:43;98640.45;;;31.99;22.91
49529;BME280;35423;37.320;-121.762;2022-09-09T10:00:16;98634.56;;;31.85;23.08
49529;BME280;35423;37.320;-121.762;2022-09-09T10:02:39;98625.73;;;31.78;22.98
49529;BME280;35423;37.320;-121.762;2022-09-09T10:05:04;98623.12;;;31.45;22.87
49529;BME280;35423;37.320;-121.762;2022-09-09T10:07:27;98623.31;;;31.57;23.14
49529;BME280;35423;37.320;-121.762;2022-09-09T10:09:54;98624.94;;;31.37;23.33
49529;BME280;35423;37.320;-121.762;2022-09-09T10:12:30;98634.33;;;31.48;23.64
49529;BME280;35423;37.320;-121.762;2022-09-09T10:14:55;98636.64;;;30.84;23.99
49529;BME280;35423;37.320;-121.762;2022-09-09T10:17:21;98640.00;;;31.28;24.18
49529;BME280;35423;37.320;-121.762;2022-09-09T10:19:50;98645.78;;;31.12;24.12
49529;BME280;35423;37.320;-121.762;2022-09-09T10:22:16;98642.74;;;31.10;23.87
49529;BME280;35423;37.320;-121.762;2022-09-09T10:24:50;98637.78;;;31.57;23.36
49529;BME280;35423;37.320;-121.762;2022-09-09T10:27:10;98632.40;;;31.55;23.27
49529;BME280;35423;37.320;-121.762;2022-09-09T10:29:41;98625.27;;;31.35;23.07
49529;BME280;35423;37.320;-121.762;2022-09-09T10:32:06;98619.58;;;30.76;22.66
49529;BME280;35423;37.320;-121.762;2022-09-09T10:34:35;98618.16;;;31.12;22.84
49529;BME280;35423;37.320;-121.762;2022-09-09T10:36:51;98613.93;;;30.58;22.98
49529;BME280;35423;37.320;-121.762;2022-09-09T10:39:28;98612.46;;;30.97;22.99
49529;BME280;35423;37.320;-121.762;2022-09-09T10:41:51;98605.83;;;30.54;22.90
49529;BME280;35423;37.320;-121.762;2022-09-09T10:44:21;98603.05;;;30.74;22.91
49529;BME280;35423;37.320;-121.762;2022-09-09T10:46:45;98602.42;;;30.87;23.03
49529;BME280;35423;37.320;-121.762;2022-09-09T10:49:15;98600.53;;;30.85;23.14
49529;BME280;35423;37.320;-121.762;2022-09-09T10:51:39;98600.44;;;30.69;23.35
49529;BME280;35423;37.320;-121.762;2022-09-09T10:54:15;98599.35;;;30.29;23.50
49529;BME280;35423;37.320;-121.762;2022-09-09T10:56:27;98597.87;;;30.48;23.66
49529;BME280;35423;37.320;-121.762;2022-09-09T10:58:55;98597.26;;;29.84;23.82
49529;BME280;35423;37.320;-121.762;2022-09-09T11:01:24;98600.10;;;30.25;24.09
49529;BME280;35423;37.320;-121.762;2022-09-09T11:03:54;98602.35;;;29.58;24.54
49529;BME280;35423;37.320;-121.762;2022-09-09T11:06:24;98599.80;;;30.15;24.89
49529;BME280;35423;37.320;-121.762;2022-09-09T11:08:40;98598.59;;;30.53;24.96
49529;BME280;35423;37.320;-121.762;2022-09-09T11:11:12;98599.37;;;30.30;24.70
49529;BME280;35423;37.320;-121.762;2022-09-09T11:13:35;98594.99;;;30.12;24.49
49529;BME280;35423;37.320;-121.762;2022-09-09T11:16:01;98595.03;;;29.84;24.51
49529;BME280;35423;37.320;-121.762;2022-09-09T11:18:22;98594.84;;;30.09;24.73
49529;BME280;35423;37.320;-121.762;2022-09-09T11:20:49;98595.52;;;29.50;25.00
49529;BME280;35423;37.320;-121.762;2022-09-09T11:23:17;98589.66;;;29.87;25.25
49529;BME280;35423;37.320;-121.762;2022-09-09T11:25:46;98592.87;;;29.76;25.47
49529;BME280;35423;37.320;-121.762;2022-09-09T11:28:30;98592.28;;;29.72;25.26
49529;BME280;35423;37.320;-121.762;2022-09-09T11:30:50;98590.62;;;29.82;25.03
49529;BME280;35423;37.320;-121.762;2022-09-09T11:33:18;98584.99;;;29.80;25.03
49529;BME280;35423;37.320;-121.762;2022-09-09T11:35:38;98581.84;;;29.26;25.08
49529;BME280;35423;37.320;-121.762;2022-09-09T11:38:12;98581.50;;;29.42;25.19
49529;BME280;35423;37.320;-121.762;2022-09-09T11:40:25;98578.51;;;29.63;25.29
49529;BME280;35423;37.320;-121.762;2022-09-09T11:45:23;98571.24;;;29.54;25.27
49529;BME280;35423;37.320;-121.762;2022-09-09T11:47:52;98568.81;;;28.63;25.27
49529;BME280;35423;37.320;-121.762;2022-09-09T11:52:42;98559.90;;;29.27;25.43
49529;BME280;35423;37.320;-121.762;2022-09-09T11:55:10;98562.47;;;29.16;25.69
49529;BME280;35423;37.320;-121.762;2022-09-09T11:57:36;98559.97;;;29.09;26.02
49529;BME280;35423;37.320;-121.762;2022-09-09T11:59:58;98561.75;;;29.05;26.27
49529;BME280;35423;37.320;-121.762;2022-09-09T12:02:26;98560.24;;;29.26;26.28
49529;BME280;35423;37.320;-121.762;2022-09-09T12:04:56;98562.63;;;28.63;26.21
49529;BME280;35423;37.320;-121.762;2022-09-09T12:07:25;98564.51;;;29.32;26.25
49529;BME280;35423;37.320;-121.762;2022-09-09T12:09:47;98568.35;;;29.21;26.43
49529;BME280;35423;37.320;-121.762;2022-09-09T12:14:55;98570.86;;;28.81;26.92
49529;BME280;35423;37.320;-121.762;2022-09-09T12:19:34;98565.72;;;28.75;26.80
49529;BME280;35423;37.320;-121.762;2022-09-09T12:22:06;98564.13;;;28.54;26.72
49529;BME280;35423;37.320;-121.762;2022-09-09T12:24:33;98565.02;;;28.60;26.76
49529;BME280;35423;37.320;-121.762;2022-09-09T12:26:59;98565.02;;;28.27;26.90
49529;BME280;35423;37.320;-121.762;2022-09-09T12:29:26;98568.00;;;28.64;27.17
49529;BME280;35423;37.320;-121.762;2022-09-09T12:31:53;98569.03;;;27.92;27.26
49529;BME280;35423;37.320;-121.762;2022-09-09T12:34:16;98567.37;;;28.51;27.54
49529;BME280;35423;37.320;-121.762;2022-09-09T12:36:40;98566.09;;;28.53;27.73
49529;BME280;35423;37.320;-121.762;2022-09-09T12:39:10;98562.01;;;28.25;27.80
49529;BME280;35423;37.320;-121.762;2022-09-09T12:41:34;98562.46;;;28.34;27.85
49529;BME280;35423;37.320;-121.762;2022-09-09T12:44:04;98565.07;;;28.13;28.14
49529;BME280;35423;37.320;-121.762;2022-09-09T12:46:33;98566.16;;;28.06;28.45
49529;BME280;35423;37.320;-121.762;2022-09-09T12:48:55;98566.90;;;27.93;28.58
49529;BME280;35423;37.320;-121.762;2022-09-09T12:51:26;98566.37;;;28.09;28.80
49529;BME280;35423;37.320;-121.762;2022-09-09T12:53:53;98565.96;;;28.00;28.94
49529;BME280;35423;37.320;-121.762;2022-09-09T12:56:22;98559.92;;;28.10;29.01